sensor_id;sensor_type;location;lat;lon;timestamp;pressure;altitude;pressure_sealevel;temperature;humidity
26719;BME280;14326;50.794;6.060;2023-05-24T00:01:48;100400.94;;;9.96;85.58
26719;BME280;14326;50.794;6.060;2023-05-24T00:04:14;100398.25;;;9.95;86.00
26719;BME280;14326;50.794;6.060;2023-05-24T00:06:43;100400.69;;;9.85;86.12
26719;BME280;14326;50.794;6.060;2023-05-24T00:09:10;100408.66;;;9.85;85.69
26719;BME280;14326;50.794;6.060;2023-05-24T00:11:37;100399.78;;;9.83;85.15
26719;BME280;14326;50.794;6.060;2023-05-24T00:14:03;100401.31;;;9.75;86.56
26719;BME280;14326;50.794;6.060;2023-05-24T00:16:31;100411.69;;;9.66;86.95
26719;BME280;14326;50.794;6.060;2023-05-24T00:18:59;100409.03;;;9.65;86.92
26719;BME280;14326;50.794;6.060;2023-05-24T00:21:26;100407.38;;;9.70;86.26
26719;BME280;14326;50.794;6.060;2023-05-24T00:23:53;100409.19;;;9.71;86.31
26719;BME280;14326;50.794;6.060;2023-05-24T00:26:19;100409.03;;;9.66;86.27
26719;BME280;14326;50.794;6.060;2023-05-24T00:28:46;100408.97;;;9.63;86.57
26719;BME280;14326;50.794;6.060;2023-05-24T00:31:13;100410.34;;;9.48;86.83
26719;BME280;14326;50.794;6.060;2023-05-24T00:33:41;100414.78;;;9.49;86.89
26719;BME280;14326;50.794;6.060;2023-05-24T00:36:08;100400.44;;;9.40;87.88
26719;BME280;14326;50.794;6.060;2023-05-24T00:38:37;100416.19;;;9.34;87.70
26719;BME280;14326;50.794;6.060;2023-05-24T00:41:03;100403.72;;;9.32;88.39
26719;BME280;14326;50.794;6.060;2023-05-24T00:43:30;100412.47;;;9.28;87.92
26719;BME280;14326;50.794;6.060;2023-05-24T00:46:15;100408.78;;;9.23;88.11
26719;BME280;14326;50.794;6.060;2023-05-24T00:48:45;100396.31;;;9.19;88.35
26719;BME280;14326;50.794;6.060;2023-05-24T00:51:31;100408.53;;;9.14;88.78
26719;BME280;14326;50.794;6.060;2023-05-24T00:53:59;100407.38;;;9.04;89.22
26719;BME280;14326;50.794;6.060;2023-05-24T00:56:26;100402.81;;;8.98;89.69
26719;BME280;14326;50.794;6.060;2023-05-24T00:59:18;100398.13;;;8.88;89.91
26719;BME280;14326;50.794;6.060;2023-05-24T01:04:47;100400.31;;;8.73;90.69
26719;BME280;14326;50.794;6.060;2023-05-24T01:07:19;100401.84;;;8.65;91.29
26719;BME280;14326;50.794;6.060;2023-05-24T01:09:59;100401.69;;;8.59;91.62
26719;BME280;14326;50.794;6.060;2023-05-24T01:12:40;100402.22;;;8.49;91.73
26719;BME280;14326;50.794;6.060;2023-05-24T01:15:17;100398.53;;;8.42;92.35
26719;BME280;14326;50.794;6.060;2023-05-24T01:18:09;100394.81;;;8.37;92.64
26719;BME280;14326;50.794;6.060;2023-05-24T01:20:59;100391.19;;;8.34;92.21
26719;BME280;14326;50.794;6.060;2023-05-24T01:26:41;100405.81;;;8.22;92.92
26719;BME280;14326;50.794;6.060;2023-05-24T01:29:12;100408.28;;;8.16;92.58
26719;BME280;14326;50.794;6.060;2023-05-24T01:31:40;100409.06;;;8.12;93.22
26719;BME280;14326;50.794;6.060;2023-05-24T01:34:08;100409.69;;;8.05;93.67
26719;BME280;14326;50.794;6.060;2023-05-24T01:36:37;100406.03;;;8.02;93.65
26719;BME280;14326;50.794;6.060;2023-05-24T01:39:04;100406.94;;;8.02;93.49
26719;BME280;14326;50.794;6.060;2023-05-24T01:41:36;100399.63;;;7.95;93.65
26719;BME280;14326;50.794;6.060;2023-05-24T01:44:12;100398.56;;;7.89;93.75
26719;BME280;14326;50.794;6.060;2023-05-24T01:47:00;100396.44;;;7.78;94.08
26719;BME280;14326;50.794;6.060;2023-05-24T01:52:54;100398.00;;;7.72;94.94
26719;BME280;14326;50.794;6.060;2023-05-24T01:55:23;100397.06;;;7.70;94.80
26719;BME280;14326;50.794;6.060;2023-05-24T01:57:53;100390.06;;;7.72;100.00
26719;BME280;14326;50.794;6.060;2023-05-24T02:00:24;100396.88;;;7.64;94.43
26719;BME280;14326;50.794;6.060;2023-05-24T02:02:52;100396.75;;;7.61;95.12
26719;BME280;14326;50.794;6.060;2023-05-24T02:05:20;100397.44;;;7.55;94.93
26719;BME280;14326;50.794;6.060;2023-05-24T02:07:46;100392.97;;;7.53;95.72
26719;BME280;14326;50.794;6.060;2023-05-24T02:10:13;100400.78;;;7.50;95.13
26719;BME280;14326;50.794;6.060;2023-05-24T02:12:39;100391.78;;;7.45;94.77
26719;BME280;14326;50.794;6.060;2023-05-24T02:15:07;100389.84;;;7.39;95.13
26719;BME280;14326;50.794;6.060;2023-05-24T02:23:54;100387.03;;;7.34;95.68
26719;BME280;14326;50.794;6.060;2023-05-24T02:26:21;100378.25;;;7.35;94.86
26719;BME280;14326;50.794;6.060;2023-05-24T02:28:47;100381.75;;;7.34;94.45
26719;BME280;14326;50.794;6.060;2023-05-24T02:31:14;100379.72;;;7.27;95.03
26719;BME280;14326;50.794;6.060;2023-05-24T02:33:54;100381.31;;;7.22;95.79
26719;BME280;14326;50.794;6.060;2023-05-24T02:36:25;100376.78;;;7.18;95.16
26719;BME280;14326;50.794;6.060;2023-05-24T02:39:06;100375.66;;;7.12;95.53
26719;BME280;14326;50.794;6.060;2023-05-24T02:41:46;100374.97;;;7.17;95.58
26719;BME280;14326;50.794;6.060;2023-05-24T02:44:25;100374.03;;;7.15;95.40
26719;BME280;14326;50.794;6.060;2023-05-24T02:46:53;100370.31;;;7.10;95.37
26719;BME280;14326;50.794;6.060;2023-05-24T02:49:25;100366.72;;;7.08;96.08
26719;BME280;14326;50.794;6.060;2023-05-24T02:51:53;100368.56;;;7.11;96.05
26719;BME280;14326;50.794;6.060;2023-05-24T02:54:39;100368.09;;;6.97;95.49
26719;BME280;14326;50.794;6.060;2023-05-24T02:57:13;100362.69;;;6.94;96.10
26719;BME280;14326;50.794;6.060;2023-05-24T02:59:39;100368.28;;;7.03;96.00
26719;BME280;14326;50.794;6.060;2023-05-24T03:02:14;100355.56;;;7.17;95.29
26719;BME280;14326;50.794;6.060;2023-05-24T03:04:46;100356.94;;;7.06;95.52
26719;BME280;14326;50.794;6.060;2023-05-24T03:07:13;100363.81;;;7.01;95.64
26719;BME280;14326;50.794;6.060;2023-05-24T03:09:47;100368.00;;;6.94;95.62
26719;BME280;14326;50.794;6.060;2023-05-24T03:12:17;100368.88;;;6.94;95.56
26719;BME280;14326;50.794;6.060;2023-05-24T03:15:11;100362.56;;;6.91;95.22
26719;BME280;14326;50.794;6.060;2023-05-24T03:17:52;100369.78;;;6.95;95.71
26719;BME280;14326;50.794;6.060;2023-05-24T03:20:38;100369.88;;;6.98;95.00
26719;BME280;14326;50.794;6.060;2023-05-24T03:26:16;100365.63;;;6.78;95.97
26719;BME280;14326;50.794;6.060;2023-05-24T03:28:59;100367.03;;;6.68;95.24
26719;BME280;14326;50.794;6.060;2023-05-24T03:31:31;100361.69;;;6.67;95.62
26719;BME280;14326;50.794;6.060;2023-05-24T03:34:14;100360.75;;;6.65;96.11
26719;BME280;14326;50.794;6.060;2023-05-24T03:36:48;100360.69;;;6.63;96.53
26719;BME280;14326;50.794;6.060;2023-05-24T03:39:14;100356.31;;;6.64;96.33
26719;BME280;14326;50.794;6.060;2023-05-24T03:41:42;100367.81;;;6.66;96.45
26719;BME280;14326;50.794;6.060;2023-05-24T03:44:09;100364.41;;;6.68;96.50
26719;BME280;14326;50.794;6.060;2023-05-24T03:46:35;100366.50;;;6.77;96.25
26719;BME280;14326;50.794;6.060;2023-05-24T03:49:02;100364.06;;;6.83;95.95
26719;BME280;14326;50.794;6.060;2023-05-24T03:51:29;100364.38;;;6.92;95.98
26719;BME280;14326;50.794;6.060;2023-05-24T03:53:56;100363.25;;;6.85;95.73
26719;BME280;14326;50.794;6.060;2023-05-24T03:56:22;100367.41;;;6.79;96.03
26719;BME280;14326;50.794;6.060;2023-05-24T03:58:51;100365.81;;;6.82;96.18
26719;BME280;14326;50.794;6.060;2023-05-24T04:01:32;100367.41;;;6.79;95.82
26719;BME280;14326;50.794;6.060;2023-05-24T04:04:01;100368.16;;;6.75;96.59
26719;BME280;14326;50.794;6.060;2023-05-24T04:06:28;100361.81;;;6.70;96.48
26719;BME280;14326;50.794;6.060;2023-05-24T04:08:58;100370.59;;;6.69;96.69
26719;BME280;14326;50.794;6.060;2023-05-24T04:11:25;100382.13;;;6.71;97.10
26719;BME280;14326;50.794;6.060;2023-05-24T04:13:54;100378.06;;;6.80;96.81
26719;BME280;14326;50.794;6.060;2023-05-24T04:16:45;100386.06;;;6.82;97.25
26719;BME280;14326;50.794;6.060;2023-05-24T04:19:25;100387.22;;;6.90;97.63
26719;BME280;14326;50.794;6.060;2023-05-24T04:21:52;100391.13;;;7.01;97.45
26719;BME280;14326;50.794;6.060;2023-05-24T04:24:18;100389.53;;;7.05;97.39
26719;BME280;14326;50.794;6.060;2023-05-24T04:26:45;100386.81;;;7.03;97.19
26719;BME280;14326;50.794;6.060;2023-05-24T04:29:13;100393.06;;;7.05;97.50
26719;BME280;14326;50.794;6.060;2023-05-24T04:31:40;100389.00;;;7.15;97.74
26719;BME280;14326;50.794;6.060;2023-05-24T04:34:07;100390.72;;;7.14;97.64
26719;BME280;14326;50.794;6.060;2023-05-24T04:36:34;100398.78;;;7.17;97.43
26719;BME280;14326;50.794;6.060;2023-05-24T04:39:04;100393.38;;;7.14;97.80
26719;BME280;14326;50.794;6.060;2023-05-24T04:41:34;100397.94;;;7.18;98.38
26719;BME280;14326;50.794;6.060;2023-05-24T04:44:05;100403.63;;;7.29;98.14
26719;BME280;14326;50.794;6.060;2023-05-24T04:46:33;100403.56;;;7.27;98.83
26719;BME280;14326;50.794;6.060;2023-05-24T04:49:00;100403.56;;;7.27;98.66
26719;BME280;14326;50.794;6.060;2023-05-24T04:51:27;100409.91;;;7.32;98.84
26719;BME280;14326;50.794;6.060;2023-05-24T04:54:02;100418.19;;;7.43;98.68
26719;BME280;14326;50.794;6.060;2023-05-24T04:56:32;100414.06;;;7.51;98.45
26719;BME280;14326;50.794;6.060;2023-05-24T04:58:59;100419.72;;;7.62;98.72
26719;BME280;14326;50.794;6.060;2023-05-24T05:01:26;100421.81;;;7.72;99.10
26719;BME280;14326;50.794;6.060;2023-05-24T05:03:54;100417.75;;;7.81;98.48
26719;BME280;14326;50.794;6.060;2023-05-24T05:06:20;100419.06;;;7.94;98.25
26719;BME280;14326;50.794;6.060;2023-05-24T05:08:47;100414.34;;;8.12;98.04
26719;BME280;14326;50.794;6.060;2023-05-24T05:11:22;100414.09;;;8.32;97.75
26719;BME280;14326;50.794;6.060;2023-05-24T05:17:13;100423.28;;;8.73;96.98
26719;BME280;14326;50.794;6.060;2023-05-24T05:19:42;100418.38;;;8.86;95.99
26719;BME280;14326;50.794;6.060;2023-05-24T05:22:31;100420.53;;;8.99;95.67
26719;BME280;14326;50.794;6.060;2023-05-24T05:25:07;100418.09;;;9.07;94.51
26719;BME280;14326;50.794;6.060;2023-05-24T05:28:05;100416.53;;;9.15;93.67
26719;BME280;14326;50.794;6.060;2023-05-24T05:30:44;100416.81;;;9.26;94.82
26719;BME280;14326;50.794;6.060;2023-05-24T05:33:10;100417.25;;;9.41;93.93
26719;BME280;14326;50.794;6.060;2023-05-24T05:35:38;100409.63;;;9.53;93.57
26719;BME280;14326;50.794;6.060;2023-05-24T05:38:05;100411.78;;;9.69;93.02
26719;BME280;14326;50.794;6.060;2023-05-24T05:40:32;100413.00;;;9.82;92.08
26719;BME280;14326;50.794;6.060;2023-05-24T05:42:58;100411.56;;;9.95;91.38
26719;BME280;14326;50.794;6.060;2023-05-24T05:45:41;100414.38;;;10.02;90.57
26719;BME280;14326;50.794;6.060;2023-05-24T05:48:14;100423.47;;;10.12;90.18
26719;BME280;14326;50.794;6.060;2023-05-24T05:50:42;100417.59;;;10.23;89.17
26719;BME280;14326;50.794;6.060;2023-05-24T05:53:09;100410.78;;;10.36;88.53
26719;BME280;14326;50.794;6.060;2023-05-24T05:55:37;100412.75;;;10.45;87.96
26719;BME280;14326;50.794;6.060;2023-05-24T05:58:03;100416.41;;;10.50;88.01
26719;BME280;14326;50.794;6.060;2023-05-24T06:00:30;100417.25;;;10.47;88.27
26719;BME280;14326;50.794;6.060;2023-05-24T06:02:56;100413.84;;;10.54;87.77
26719;BME280;14326;50.794;6.060;2023-05-24T06:05:26;100408.66;;;10.60;87.38
26719;BME280;14326;50.794;6.060;2023-05-24T06:07:54;100402.72;;;10.74;89.38
26719;BME280;14326;50.794;6.060;2023-05-24T06:10:20;100411.00;;;10.87;88.88
26719;BME280;14326;50.794;6.060;2023-05-24T06:12:47;100404.34;;;11.09;87.89
26719;BME280;14326;50.794;6.060;2023-05-24T06:15:14;100407.78;;;11.03;87.10
26719;BME280;14326;50.794;6.060;2023-05-24T06:17:40;100409.63;;;11.06;86.42
26719;BME280;14326;50.794;6.060;2023-05-24T06:20:09;100407.88;;;11.08;87.15
26719;BME280;14326;50.794;6.060;2023-05-24T06:22:39;100415.13;;;11.15;86.26
26719;BME280;14326;50.794;6.060;2023-05-24T06:25:08;100413.19;;;11.08;85.75
26719;BME280;14326;50.794;6.060;2023-05-24T06:27:39;100415.19;;;11.20;86.53
26719;BME280;14326;50.794;6.060;2023-05-24T06:30:07;100421.13;;;11.52;85.23
26719;BME280;14326;50.794;6.060;2023-05-24T06:32:34;100423.06;;;11.59;84.40
26719;BME280;14326;50.794;6.060;2023-05-24T06:35:01;100423.06;;;11.59;83.54
26719;BME280;14326;50.794;6.060;2023-05-24T06:37:28;100428.50;;;11.65;84.16
26719;BME280;14326;50.794;6.060;2023-05-24T06:39:55;100429.16;;;11.53;81.27
26719;BME280;14326;50.794;6.060;2023-05-24T06:42:23;100429.69;;;11.34;82.55
26719;BME280;14326;50.794;6.060;2023-05-24T06:44:50;100438.25;;;11.19;83.95
26719;BME280;14326;50.794;6.060;2023-05-24T06:47:16;100437.34;;;11.17;84.46
26719;BME280;14326;50.794;6.060;2023-05-24T06:49:43;100436.72;;;11.30;84.57
26719;BME280;14326;50.794;6.060;2023-05-24T06:52:09;100435.16;;;11.43;84.73
26719;BME280;14326;50.794;6.060;2023-05-24T06:54:38;100435.50;;;11.60;85.34
26719;BME280;14326;50.794;6.060;2023-05-24T06:57:04;100424.78;;;12.08;82.25
26719;BME280;14326;50.794;6.060;2023-05-24T06:59:32;100423.69;;;12.51;78.75
26719;BME280;14326;50.794;6.060;2023-05-24T07:01:59;100418.00;;;12.90;77.18
26719;BME280;14326;50.794;6.060;2023-05-24T07:04:25;100423.53;;;13.08;74.98
26719;BME280;14326;50.794;6.060;2023-05-24T07:06:52;100422.81;;;13.20;74.93
26719;BME280;14326;50.794;6.060;2023-05-24T07:09:42;100432.72;;;13.28;73.69
26719;BME280;14326;50.794;6.060;2023-05-24T07:12:38;100427.34;;;13.24;71.86
26719;BME280;14326;50.794;6.060;2023-05-24T07:18:41;100428.56;;;13.56;68.59
26719;BME280;14326;50.794;6.060;2023-05-24T07:21:38;100431.94;;;13.37;70.14
26719;BME280;14326;50.794;6.060;2023-05-24T07:24:07;100425.47;;;13.17;69.88
26719;BME280;14326;50.794;6.060;2023-05-24T07:26:34;100429.19;;;13.31;72.46
26719;BME280;14326;50.794;6.060;2023-05-24T07:29:19;100435.97;;;13.04;71.06
26719;BME280;14326;50.794;6.060;2023-05-24T07:32:06;100442.72;;;12.77;72.58
26719;BME280;14326;50.794;6.060;2023-05-24T07:34:46;100445.66;;;12.98;72.56
26719;BME280;14326;50.794;6.060;2023-05-24T07:37:23;100455.19;;;12.76;72.62
26719;BME280;14326;50.794;6.060;2023-05-24T07:40:01;100462.22;;;12.71;73.10
26719;BME280;14326;50.794;6.060;2023-05-24T07:42:29;100458.72;;;12.75;72.84
26719;BME280;14326;50.794;6.060;2023-05-24T07:45:08;100464.91;;;12.71;72.82
26719;BME280;14326;50.794;6.060;2023-05-24T07:47:37;100466.66;;;12.69;72.64
26719;BME280;14326;50.794;6.060;2023-05-24T07:50:24;100455.22;;;12.78;73.42
26719;BME280;14326;50.794;6.060;2023-05-24T07:53:17;100456.13;;;12.81;73.76
26719;BME280;14326;50.794;6.060;2023-05-24T07:55:47;100456.38;;;12.99;72.64
26719;BME280;14326;50.794;6.060;2023-05-24T07:58:15;100457.69;;;13.32;73.74
26719;BME280;14326;50.794;6.060;2023-05-24T08:00:41;100457.91;;;13.51;71.43
26719;BME280;14326;50.794;6.060;2023-05-24T08:03:09;100454.38;;;13.56;68.14
26719;BME280;14326;50.794;6.060;2023-05-24T08:05:38;100449.63;;;13.27;66.80
26719;BME280;14326;50.794;6.060;2023-05-24T08:08:05;100453.38;;;12.75;71.69
26719;BME280;14326;50.794;6.060;2023-05-24T08:10:31;100457.91;;;12.81;73.12
26719;BME280;14326;50.794;6.060;2023-05-24T08:12:58;100455.25;;;12.82;72.28
26719;BME280;14326;50.794;6.060;2023-05-24T08:15:25;100459.81;;;12.91;71.95
26719;BME280;14326;50.794;6.060;2023-05-24T08:17:51;100455.53;;;13.03;68.45
26719;BME280;14326;50.794;6.060;2023-05-24T08:20:19;100458.03;;;12.88;68.89
26719;BME280;14326;50.794;6.060;2023-05-24T08:22:46;100458.78;;;12.78;68.92
26719;BME280;14326;50.794;6.060;2023-05-24T08:25:13;100461.44;;;12.78;68.97
26719;BME280;14326;50.794;6.060;2023-05-24T08:27:40;100456.72;;;12.59;69.56
26719;BME280;14326;50.794;6.060;2023-05-24T08:30:07;100465.28;;;12.37;70.32
26719;BME280;14326;50.794;6.060;2023-05-24T08:32:37;100465.53;;;12.53;70.22
26719;BME280;14326;50.794;6.060;2023-05-24T08:35:04;100469.19;;;12.60;69.78
26719;BME280;14326;50.794;6.060;2023-05-24T08:37:33;100456.91;;;12.74;69.85
26719;BME280;14326;50.794;6.060;2023-05-24T08:40:02;100465.94;;;12.82;69.22
26719;BME280;14326;50.794;6.060;2023-05-24T08:42:38;100455.44;;;12.94;69.53
26719;BME280;14326;50.794;6.060;2023-05-24T08:45:09;100460.84;;;13.00;68.59
26719;BME280;14326;50.794;6.060;2023-05-24T08:47:49;100458.28;;;13.09;68.99
26719;BME280;14326;50.794;6.060;2023-05-24T08:50:15;100457.53;;;13.17;69.34
26719;BME280;14326;50.794;6.060;2023-05-24T08:52:50;100453.16;;;13.26;69.55
26719;BME280;14326;50.794;6.060;2023-05-24T08:55:18;100452.47;;;13.41;68.11
26719;BME280;14326;50.794;6.060;2023-05-24T08:57:45;100445.50;;;13.58;67.77
26719;BME280;14326;50.794;6.060;2023-05-24T09:00:13;100437.69;;;13.76;65.17
26719;BME280;14326;50.794;6.060;2023-05-24T09:02:41;100436.00;;;13.87;66.16
26719;BME280;14326;50.794;6.060;2023-05-24T09:05:09;100432.63;;;14.11;62.13
26719;BME280;14326;50.794;6.060;2023-05-24T09:07:39;100444.97;;;13.94;61.79
26719;BME280;14326;50.794;6.060;2023-05-24T09:10:09;100431.75;;;14.14;62.00
26719;BME280;14326;50.794;6.060;2023-05-24T09:12:37;100430.25;;;14.49;60.68
26719;BME280;14326;50.794;6.060;2023-05-24T09:15:06;100428.66;;;14.82;57.39
26719;BME280;14326;50.794;6.060;2023-05-24T09:17:34;100434.09;;;14.98;56.56
26719;BME280;14326;50.794;6.060;2023-05-24T09:20:01;100427.00;;;15.20;56.85
26719;BME280;14326;50.794;6.060;2023-05-24T09:22:31;100420.72;;;15.01;56.56
26719;BME280;14326;50.794;6.060;2023-05-24T09:24:59;100434.72;;;14.47;58.15
26719;BME280;14326;50.794;6.060;2023-05-24T09:27:28;100431.84;;;14.24;60.88
26719;BME280;14326;50.794;6.060;2023-05-24T09:29:57;100426.78;;;14.67;59.82
26719;BME280;14326;50.794;6.060;2023-05-24T09:32:23;100430.41;;;14.77;59.02
26719;BME280;14326;50.794;6.060;2023-05-24T09:34:51;100417.94;;;14.80;58.21
26719;BME280;14326;50.794;6.060;2023-05-24T09:37:20;100418.06;;;15.09;58.80
26719;BME280;14326;50.794;6.060;2023-05-24T09:39:48;100420.78;;;15.23;57.18
26719;BME280;14326;50.794;6.060;2023-05-24T09:42:16;100422.56;;;15.22;56.66
26719;BME280;14326;50.794;6.060;2023-05-24T09:44:46;100418.97;;;15.20;56.13
26719;BME280;14326;50.794;6.060;2023-05-24T09:47:14;100409.19;;;15.24;56.76
26719;BME280;14326;50.794;6.060;2023-05-24T09:49:40;100417.34;;;15.63;56.83
26719;BME280;14326;50.794;6.060;2023-05-24T09:52:08;100396.81;;;16.08;54.77
26719;BME280;14326;50.794;6.060;2023-05-24T09:54:39;100401.19;;;16.53;53.94
26719;BME280;14326;50.794;6.060;2023-05-24T09:57:06;100396.72;;;16.52;52.83
26719;BME280;14326;50.794;6.060;2023-05-24T09:59:33;100404.81;;;16.36;52.47
26719;BME280;14326;50.794;6.060;2023-05-24T10:02:11;100391.44;;;16.06;53.14
26719;BME280;14326;50.794;6.060;2023-05-24T10:04:38;100400.38;;;15.87;54.70
26719;BME280;14326;50.794;6.060;2023-05-24T10:07:18;100396.78;;;15.86;54.37
26719;BME280;14326;50.794;6.060;2023-05-24T10:09:45;100396.81;;;15.88;53.27
26719;BME280;14326;50.794;6.060;2023-05-24T10:12:12;100395.00;;;15.70;54.78
26719;BME280;14326;50.794;6.060;2023-05-24T10:14:38;100398.59;;;15.77;54.66
26719;BME280;14326;50.794;6.060;2023-05-24T10:17:30;100391.41;;;15.74;53.38
26719;BME280;14326;50.794;6.060;2023-05-24T10:20:01;100396.72;;;15.42;55.25
26719;BME280;14326;50.794;6.060;2023-05-24T10:22:29;100398.38;;;15.01;56.60
26719;BME280;14326;50.794;6.060;2023-05-24T10:24:58;100393.13;;;15.25;57.60
26719;BME280;14326;50.794;6.060;2023-05-24T10:27:27;100386.06;;;15.59;56.37
26719;BME280;14326;50.794;6.060;2023-05-24T10:30:01;100395.00;;;15.53;55.56
26719;BME280;14326;50.794;6.060;2023-05-24T10:32:34;100392.25;;;15.44;56.88
26719;BME280;14326;50.794;6.060;2023-05-24T10:35:05;100394.06;;;15.56;54.44
26719;BME280;14326;50.794;6.060;2023-05-24T10:37:32;100386.00;;;15.45;55.90
26719;BME280;14326;50.794;6.060;2023-05-24T10:39:59;100395.75;;;15.16;57.29
26719;BME280;14326;50.794;6.060;2023-05-24T10:42:26;100389.47;;;15.05;57.04
26719;BME280;14326;50.794;6.060;2023-05-24T10:44:56;100393.06;;;15.07;57.37
26719;BME280;14326;50.794;6.060;2023-05-24T10:47:24;100394.84;;;15.15;57.73
26719;BME280;14326;50.794;6.060;2023-05-24T10:49:55;100389.47;;;15.14;56.29
26719;BME280;14326;50.794;6.060;2023-05-24T10:52:33;100400.25;;;15.23;56.33
26719;BME280;14326;50.794;6.060;2023-05-24T10:55:01;100389.50;;;15.26;56.56
26719;BME280;14326;50.794;6.060;2023-05-24T10:57:31;100396.66;;;15.21;57.53
26719;BME280;14326;50.794;6.060;2023-05-24T11:00:24;100403.78;;;15.16;55.87
26719;BME280;14326;50.794;6.060;2023-05-24T11:02:58;100395.72;;;15.14;56.63
26719;BME280;14326;50.794;6.060;2023-05-24T11:05:32;100388.69;;;15.48;56.12
26719;BME280;14326;50.794;6.060;2023-05-24T11:07:58;100385.19;;;15.77;55.66
26719;BME280;14326;50.794;6.060;2023-05-24T11:10:29;100378.91;;;15.96;54.49
26719;BME280;14326;50.794;6.060;2023-05-24T11:12:56;100377.09;;;15.98;54.30
26719;BME280;14326;50.794;6.060;2023-05-24T11:15:25;100395.91;;;15.84;53.88
26719;BME280;14326;50.794;6.060;2023-05-24T11:18:12;100390.53;;;15.80;54.47
26719;BME280;14326;50.794;6.060;2023-05-24T11:20:42;100383.38;;;15.64;54.63
26719;BME280;14326;50.794;6.060;2023-05-24T11:23:09;100388.75;;;15.61;54.89
26719;BME280;14326;50.794;6.060;2023-05-24T11:25:37;100384.25;;;15.53;55.21
26719;BME280;14326;50.794;6.060;2023-05-24T11:28:05;100383.38;;;15.53;54.65
26719;BME280;14326;50.794;6.060;2023-05-24T11:30:33;100379.78;;;15.54;55.58
26719;BME280;14326;50.794;6.060;2023-05-24T11:32:59;100377.09;;;15.63;57.33
26719;BME280;14326;50.794;6.060;2023-05-24T11:35:27;100370.84;;;15.70;56.55
26719;BME280;14326;50.794;6.060;2023-05-24T11:37:55;100378.81;;;15.35;58.32
26719;BME280;14326;50.794;6.060;2023-05-24T11:40:22;100374.28;;;15.08;59.53
26719;BME280;14326;50.794;6.060;2023-05-24T11:42:49;100370.66;;;14.91;61.95
26719;BME280;14326;50.794;6.060;2023-05-24T11:45:16;100371.50;;;14.77;62.71
26719;BME280;14326;50.794;6.060;2023-05-24T11:47:43;100374.16;;;14.73;62.52
26719;BME280;14326;50.794;6.060;2023-05-24T11:50:15;100373.28;;;14.81;60.81
26719;BME280;14326;50.794;6.060;2023-05-24T11:52:52;100362.59;;;14.91;59.53
26719;BME280;14326;50.794;6.060;2023-05-24T11:55:24;100372.41;;;14.86;58.77
26719;BME280;14326;50.794;6.060;2023-05-24T11:57:54;100369.63;;;14.59;61.29
26719;BME280;14326;50.794;6.060;2023-05-24T12:00:23;100373.16;;;14.49;63.22
26719;BME280;14326;50.794;6.060;2023-05-24T12:02:50;100381.94;;;14.34;63.78
26719;BME280;14326;50.794;6.060;2023-05-24T12:05:18;100374.75;;;14.24;63.23
26719;BME280;14326;50.794;6.060;2023-05-24T12:07:44;100379.16;;;14.17;64.41
26719;BME280;14326;50.794;6.060;2023-05-24T12:10:13;100372.00;;;14.13;66.20
26719;BME280;14326;50.794;6.060;2023-05-24T12:12:43;100375.56;;;14.12;66.23
26719;BME280;14326;50.794;6.060;2023-05-24T12:15:10;100370.13;;;14.00;65.10
26719;BME280;14326;50.794;6.060;2023-05-24T12:17:39;100366.56;;;14.04;66.13
26719;BME280;14326;50.794;6.060;2023-05-24T12:20:08;100377.38;;;14.13;65.90
26719;BME280;14326;50.794;6.060;2023-05-24T12:22:36;100374.78;;;14.33;66.18
26719;BME280;14326;50.794;6.060;2023-05-24T12:25:03;100366.91;;;14.51;66.37
26719;BME280;14326;50.794;6.060;2023-05-24T12:27:30;100361.59;;;14.57;65.53
26719;BME280;14326;50.794;6.060;2023-05-24T12:30:06;100367.91;;;14.79;63.55
26719;BME280;14326;50.794;6.060;2023-05-24T12:32:34;100366.22;;;14.98;61.51
26719;BME280;14326;50.794;6.060;2023-05-24T12:35:02;100362.69;;;15.11;62.09
26719;BME280;14326;50.794;6.060;2023-05-24T12:37:30;100368.94;;;15.10;61.57
26719;BME280;14326;50.794;6.060;2023-05-24T12:39:59;100371.53;;;14.86;62.84
26719;BME280;14326;50.794;6.060;2023-05-24T12:42:29;100372.38;;;14.71;63.23
26719;BME280;14326;50.794;6.060;2023-05-24T12:44:56;100374.13;;;14.64;63.85
26719;BME280;14326;50.794;6.060;2023-05-24T12:47:24;100370.53;;;14.64;64.95
26719;BME280;14326;50.794;6.060;2023-05-24T12:49:51;100378.56;;;14.62;64.73
26719;BME280;14326;50.794;6.060;2023-05-24T12:52:17;100371.41;;;14.61;64.51
26719;BME280;14326;50.794;6.060;2023-05-24T12:54:44;100365.19;;;14.59;64.47
26719;BME280;14326;50.794;6.060;2023-05-24T12:57:10;100373.16;;;14.56;64.27
26719;BME280;14326;50.794;6.060;2023-05-24T12:59:37;100377.69;;;14.60;64.50
26719;BME280;14326;50.794;6.060;2023-05-24T13:02:04;100367.03;;;14.72;64.69
26719;BME280;14326;50.794;6.060;2023-05-24T13:04:32;100367.97;;;14.87;63.01
26719;BME280;14326;50.794;6.060;2023-05-24T13:07:00;100368.91;;;15.08;64.35
26719;BME280;14326;50.794;6.060;2023-05-24T13:09:27;100363.59;;;15.22;63.45
26719;BME280;14326;50.794;6.060;2023-05-24T13:11:54;100364.50;;;15.29;59.87
26719;BME280;14326;50.794;6.060;2023-05-24T13:14:20;100365.38;;;15.26;60.77
26719;BME280;14326;50.794;6.060;2023-05-24T13:16:47;100366.31;;;15.34;60.21
26719;BME280;14326;50.794;6.060;2023-05-24T13:19:13;100362.72;;;15.29;59.15
26719;BME280;14326;50.794;6.060;2023-05-24T13:21:42;100359.16;;;15.27;60.35
26719;BME280;14326;50.794;6.060;2023-05-24T13:24:08;100359.16;;;15.30;61.34
26719;BME280;14326;50.794;6.060;2023-05-24T13:26:35;100356.50;;;15.47;59.76
26719;BME280;14326;50.794;6.060;2023-05-24T13:29:03;100354.75;;;15.67;59.11
26719;BME280;14326;50.794;6.060;2023-05-24T13:31:29;100347.63;;;15.78;58.70
26719;BME280;14326;50.794;6.060;2023-05-24T13:33:56;100350.28;;;15.77;54.84
26719;BME280;14326;50.794;6.060;2023-05-24T13:36:22;100345.84;;;15.77;56.47
26719;BME280;14326;50.794;6.060;2023-05-24T13:38:50;100343.13;;;15.95;56.64